Time;durP1;ratioP1;P1;durP2;ratioP2;P2;SDS_P1;SDS_P2;PMS_P1;PMS_P2;Temp;Humidity;BMP_temperature;BMP_pressure;BME280_temperature;BME280_humidity;BME280_pressure;Samples;Min_cycle;Max_cycle;Signal;HPM_P1;HPM_P2
2023/12/20 00:01:21;;;;;;;36.20;13.35;;;;;;;1.46;64.31;99923.50;7738202;32;37527;-79
2023/12/20 00:05:40;;;;;;;26.52;13.38;;;;;;;1.06;65.75;99914.66;7739240;32;37235;-80
2023/12/20 00:09:57;;;;;;;27.77;12.77;;;;;;;1.22;65.01;99908.87;7738734;32;39304;-79
2023/12/20 00:14:13;;;;;;;36.05;12.77;;;;;;;1.59;63.70;99903.06;7739165;32;40858;-79
2023/12/20 00:18:29;;;;;;;44.13;12.40;;;;;;;1.33;64.06;99894.00;7739237;32;37879;-79
2023/12/20 00:22:46;;;;;;;25.27;12.52;;;;;;;1.39;63.83;99887.78;7727215;32;38356;-79
2023/12/20 00:27:02;;;;;;;23.75;12.57;;;;;;;1.15;64.46;99883.06;7712400;32;39106;-80
2023/12/20 00:31:18;;;;;;;30.70;12.85;;;;;;;1.14;64.84;99879.56;7712210;32;40017;-79
2023/12/20 00:35:35;;;;;;;26.17;12.30;;;;;;;1.23;64.19;99864.87;7712364;32;37856;-80
2023/12/20 00:39:51;;;;;;;21.87;11.27;;;;;;;1.13;64.23;99862.59;7712215;32;37190;-79
2023/12/20 00:44:07;;;;;;;30.40;12.00;;;;;;;0.73;64.84;99851.88;7712187;32;39420;-80
2023/12/20 00:48:24;;;;;;;24.77;11.48;;;;;;;0.83;64.52;99848.78;7711993;32;40767;-80
2023/12/20 00:52:40;;;;;;;26.45;12.32;;;;;;;1.00;63.96;99843.84;7711948;32;37885;-80
2023/12/20 00:56:56;;;;;;;25.77;12.48;;;;;;;1.18;63.04;99835.13;7712065;32;38107;-80
2023/12/20 01:01:12;;;;;;;20.37;11.10;;;;;;;1.14;63.37;99836.59;7716826;32;40043;-80
2023/12/20 01:05:29;;;;;;;21.87;10.55;;;;;;;1.03;63.70;99832.66;7737726;32;40798;-79
2023/12/20 01:09:45;;;;;;;41.70;10.57;;;;;;;1.21;63.35;99828.50;7738752;32;38819;-79
2023/12/20 01:14:01;;;;;;;21.85;10.55;;;;;;;1.08;63.82;99822.12;7738637;32;38201;-80
2023/12/20 01:18:18;;;;;;;23.80;10.88;;;;;;;1.17;63.47;99821.91;7738756;32;39993;-79
2023/12/20 01:22:35;;;;;;;25.73;11.27;;;;;;;0.78;64.16;99818.22;7738498;32;40657;-79
2023/12/20 01:26:51;;;;;;;31.77;12.37;;;;;;;1.18;62.96;99810.97;7738393;32;38721;-79
2023/12/20 01:31:08;;;;;;;27.98;12.30;;;;;;;0.93;63.63;99797.34;7738386;32;37996;-80
2023/12/20 01:35:25;;;;;;;22.98;11.60;;;;;;;0.89;64.34;99799.62;7738355;32;39346;-80
2023/12/20 01:39:41;;;;;;;24.65;11.23;;;;;;;0.64;65.67;99799.47;7738321;32;39985;-79
2023/12/20 01:43:57;;;;;;;26.87;11.63;;;;;;;0.95;64.67;99789.94;7738189;32;37977;-80
2023/12/20 01:48:14;;;;;;;27.87;10.75;;;;;;;0.80;65.02;99771.38;7736855;32;37352;-80
2023/12/20 01:52:33;;;;;;;21.98;11.63;;;;;;;0.75;64.70;99765.78;7736953;32;40064;-79
2023/12/20 01:56:50;;;;;;;25.88;11.02;;;;;;;0.51;65.94;99751.97;7738085;32;40353;-80
2023/12/20 02:01:06;;;;;;;26.73;11.80;;;;;;;0.76;65.00;99743.31;7736967;32;37647;-80
2023/12/20 02:05:23;;;;;;;24.65;11.60;;;;;;;0.99;64.50;99737.47;7737912;32;37972;-81
2023/12/20 02:09:40;;;;;;;34.63;12.07;;;;;;;1.03;64.39;99727.94;7737979;32;39402;-80
2023/12/20 02:13:56;;;;;;;25.70;12.95;;;;;;;1.05;64.40;99714.31;7736636;32;40604;-79
2023/12/20 02:18:15;;;;;;;24.77;11.82;;;;;;;1.04;64.59;99710.81;7736413;32;38616;-79
2023/12/20 02:22:31;;;;;;;19.62;11.32;;;;;;;0.91;64.53;99702.78;7736635;32;38130;-80
2023/12/20 02:26:48;;;;;;;28.02;11.65;;;;;;;1.17;64.21;99693.00;7737727;32;39963;-80
2023/12/20 02:31:04;;;;;;;24.92;11.98;;;;;;;1.10;63.81;99682.28;7737502;32;39725;-80
2023/12/20 02:35:20;;;;;;;24.92;12.00;;;;;;;1.00;63.96;99690.81;7735791;32;38679;-80
2023/12/20 02:39:37;;;;;;;31.05;12.37;;;;;;;1.25;63.33;99690.09;7737368;32;37966;-80
2023/12/20 02:43:53;;;;;;;30.85;11.65;;;;;;;1.27;63.47;99682.63;7737310;32;40111;-80
2023/12/20 02:48:09;;;;;;;26.23;10.48;;;;;;;1.22;63.51;99693.19;7715037;32;40143;-80
2023/12/20 02:52:27;;;;;;;25.98;11.63;;;;;;;1.06;64.02;99689.94;7710255;32;37750;-80
2023/12/20 02:56:43;;;;;;;21.55;10.23;;;;;;;1.25;63.31;99690.09;7710180;32;38061;-80
2023/12/20 03:00:59;;;;;;;25.65;12.07;;;;;;;1.22;63.28;99706.63;7710165;32;39288;-80
2023/12/20 03:05:16;;;;;;;28.92;10.65;;;;;;;1.30;63.17;99703.69;7709736;32;39679;-80
2023/12/20 03:09:32;;;;;;;40.03;11.77;;;;;;;1.10;63.76;99703.75;7709963;32;37826;-80
2023/12/20 03:14:09;;;;;;;30.65;13.27;;;;;;;1.16;63.57;99699.44;7709489;32;37434;-80
2023/12/20 03:18:25;;;;;;;38.25;12.50;;;;;;;0.89;64.11;99688.75;7709778;32;40039;-80
2023/12/20 03:22:41;;;;;;;46.50;11.18;;;;;;;0.87;65.01;99680.91;7709496;32;40009;-80
2023/12/20 03:26:57;;;;;;;53.63;12.90;;;;;;;0.15;66.89;99675.44;7709517;32;38155;-80
2023/12/20 03:31:14;;;;;;;38.40;12.02;;;;;;;0.58;65.92;99681.41;7728816;32;36867;-80
2023/12/20 03:35:30;;;;;;;35.05;11.95;;;;;;;0.68;65.76;99693.34;7739765;32;40234;-80
2023/12/20 03:39:46;;;;;;;36.10;11.65;;;;;;;0.84;65.09;99677.84;7739569;32;39887;-80
2023/12/20 03:44:03;;;;;;;26.23;11.43;;;;;;;1.06;64.55;99684.56;7739707;32;38068;-80
2023/12/20 03:48:19;;;;;;;36.88;11.85;;;;;;;1.12;63.88;99662.25;7739371;32;37412;-79
2023/12/20 03:52:35;;;;;;;24.98;11.70;;;;;;;0.53;66.01;99679.34;7739569;32;39410;-80
2023/12/20 03:56:52;;;;;;;22.85;10.57;;;;;;;0.62;66.06;99672.75;7739655;32;40788;-79
2023/12/20 04:01:12;;;;;;;28.15;11.77;;;;;;;0.95;64.44;99666.47;7739467;32;37707;-79
2023/12/20 04:05:28;;;;;;;22.20;10.82;;;;;;;1.00;64.05;99645.16;7739324;32;37093;-79
2023/12/20 04:09:45;;;;;;;25.70;10.60;;;;;;;0.27;66.41;99627.37;7739377;32;39383;-79
2023/12/20 04:14:01;;;;;;;23.55;11.77;;;;;;;0.49;65.83;99624.47;7737567;32;40157;-79
2023/12/20 04:18:17;;;;;;;21.40;10.82;;;;;;;0.86;64.58;99614.03;7739240;32;37950;-79
2023/12/20 04:22:33;;;;;;;24.17;11.52;;;;;;;0.80;64.67;99601.47;7712699;32;37603;-79
2023/12/20 04:26:50;;;;;;;24.08;10.75;;;;;;;0.95;64.14;99585.91;7712438;32;40181;-79
2023/12/20 04:31:06;;;;;;;23.35;11.00;;;;;;;1.15;63.45;99603.78;7712185;32;39774;-79
2023/12/20 04:35:22;;;;;;;19.20;10.50;;;;;;;0.74;64.13;99587.88;7712264;32;37986;-79
2023/12/20 04:39:40;;;;;;;19.98;9.88;;;;;;;0.84;63.80;99583.91;7711258;32;37130;-79
2023/12/20 04:43:57;;;;;;;23.65;10.63;;;;;;;0.70;64.11;99581.25;7712415;32;39394;-79
2023/12/20 04:48:13;;;;;;;20.83;10.65;;;;;;;0.96;63.26;99571.44;7738035;32;40864;-79
2023/12/20 04:52:29;;;;;;;19.65;10.20;;;;;;;0.80;63.24;99562.03;7738734;32;38102;-79
2023/12/20 04:56:46;;;;;;;17.87;9.70;;;;;;;0.77;63.38;99556.28;7739062;32;37151;-80
2023/12/20 05:01:05;;;;;;;18.45;9.23;;;;;;;0.61;63.77;99554.91;7738595;32;39120;-80
2023/12/20 05:05:22;;;;;;;23.00;9.85;;;;;;;0.95;62.88;99542.97;7738706;32;39908;-80
2023/12/20 05:09:38;;;;;;;19.98;10.60;;;;;;;0.82;63.20;99559.94;7738699;32;38476;-80
2023/12/20 05:13:54;;;;;;;19.08;10.25;;;;;;;0.76;63.45;99560.81;7730037;32;37079;-79
2023/12/20 05:18:11;;;;;;;22.45;10.77;;;;;;;0.72;63.53;99555.03;7712017;32;40059;-80
2023/12/20 05:22:27;;;;;;;20.65;10.27;;;;;;;0.91;63.11;99552.47;7711674;32;40183;-80
2023/12/20 05:26:43;;;;;;;23.40;11.40;;;;;;;0.82;63.13;99543.84;7711710;32;38346;-80
2023/12/20 05:31:00;;;;;;;15.15;9.52;;;;;;;0.79;62.89;99559.56;7711431;32;37178;-80
2023/12/20 05:35:17;;;;;;;24.67;11.57;;;;;;;0.69;63.38;99560.00;7711662;32;40111;-80
2023/12/20 05:39:33;;;;;;;26.95;10.23;;;;;;;0.83;62.88;99544.66;7711444;32;40000;-79
2023/12/20 05:43:50;;;;;;;30.48;9.43;;;;;;;0.36;63.10;99567.16;7734735;32;37886;-79
2023/12/20 05:48:07;;;;;;;20.65;10.52;;;;;;;0.46;62.96;99550.59;7738251;32;37175;-79
2023/12/20 05:52:23;;;;;;;33.17;11.07;;;;;;;0.45;63.06;99554.34;7737642;32;40163;-79
2023/12/20 05:56:39;;;;;;;46.08;10.63;;;;;;;0.67;62.72;99554.88;7738035;32;40112;-79
2023/12/20 06:00:56;;;;;;;64.85;12.27;;;;;;;0.71;62.52;99566.00;7737876;32;38688;-80
2023/12/20 06:05:12;;;;;;;32.97;11.05;;;;;;;0.48;63.51;99563.78;7730268;32;37122;-79
2023/12/20 06:09:28;;;;;;;22.77;10.85;;;;;;;0.59;63.43;99563.16;7711108;32;39305;-79
2023/12/20 06:13:48;;;;;;;25.45;11.48;;;;;;;0.87;62.89;99568.19;7710951;32;39439;-78
2023/12/20 06:18:05;;;;;;;60.55;12.60;;;;;;;0.87;62.78;99567.37;7710968;32;37954;-79
2023/12/20 06:22:21;;;;;;;201.70;16.27;;;;;;;0.54;63.66;99568.34;7710741;32;37323;-79
2023/12/20 06:26:38;;;;;;;49.58;11.63;;;;;;;0.78;63.04;99574.84;7720814;32;39110;-80
2023/12/20 06:30:54;;;;;;;57.80;13.40;;;;;;;0.35;64.65;99570.84;7735177;32;40948;-80
2023/12/20 06:35:11;;;;;;;82.10;13.75;;;;;;;0.54;64.39;99566.47;7709730;32;38837;-77
2023/12/20 06:39:28;;;;;;;22.50;11.07;;;;;;;0.69;63.67;99560.00;7712029;32;37987;-80
2023/12/20 06:43:44;;;;;;;21.15;11.57;;;;;;;0.67;63.73;99562.94;7725852;32;40033;-79
2023/12/20 06:48:06;;;;;;;35.05;12.23;;;;;;;0.52;64.37;99554.31;7736733;32;40950;-78
2023/12/20 06:52:22;;;;;;;33.45;11.85;;;;;;;0.68;64.01;99558.37;7716847;32;38523;-79
2023/12/20 06:56:38;;;;;;;28.27;12.27;;;;;;;0.68;63.95;99556.50;7710186;32;38159;-78
2023/12/20 07:00:54;;;;;;;32.67;10.93;;;;;;;0.80;63.58;99553.16;7710122;32;40068;-79
2023/12/20 07:05:11;;;;;;;65.10;12.30;;;;;;;0.61;64.19;99555.72;7712437;32;40917;-80
2023/12/20 07:09:27;;;;;;;190.77;17.80;;;;;;;0.87;63.64;99560.13;7713217;32;38674;-82
2023/12/20 07:13:44;;;;;;;133.65;14.13;;;;;;;0.86;63.49;99561.19;7713173;32;37372;-84
2023/12/20 07:18:00;;;;;;;78.85;12.98;;;;;;;1.06;63.21;99568.31;7713276;32;39274;-83
2023/12/20 07:22:16;;;;;;;66.03;12.13;;;;;;;1.19;65.74;99572.75;7712881;32;40833;-82
2023/12/20 07:26:34;;;;;;;143.87;15.10;;;;;;;1.25;64.03;99578.09;7713113;32;37812;-82
2023/12/20 07:30:50;;;;;;;55.60;11.60;;;;;;;0.74;64.21;99585.19;7713082;32;37034;-82
2023/12/20 07:35:07;;;;;;;42.05;12.52;;;;;;;0.55;64.31;99580.69;7712912;32;40057;-83
2023/12/20 07:39:23;;;;;;;216.75;20.83;;;;;;;0.55;64.65;99565.44;7712850;32;40046;-81
2023/12/20 07:43:39;;;;;;;192.93;18.37;;;;;;;0.25;64.68;99580.38;7712795;32;37923;-83
2023/12/20 07:47:56;;;;;;;80.72;14.13;;;;;;;0.04;65.69;99581.44;7730584;32;38051;-79
2023/12/20 07:52:12;;;;;;;122.20;14.70;;;;;;;0.53;64.47;99572.03;7711479;32;40032;-83
2023/12/20 07:56:28;;;;;;;89.40;15.25;;;;;;;-0.26;66.70;99574.66;7712398;32;39746;-83
2023/12/20 08:00:44;;;;;;;60.28;14.40;;;;;;;0.65;64.40;99574.87;7719301;32;38632;-80
2023/12/20 08:05:01;;;;;;;128.75;15.57;;;;;;;0.62;64.72;99570.78;7739143;32;38021;-79
2023/12/20 08:09:17;;;;;;;65.20;15.40;;;;;;;0.53;65.05;99572.03;7739322;32;40156;-79
2023/12/20 08:13:33;;;;;;;83.70;13.43;;;;;;;0.40;65.17;99546.09;7738997;32;39928;-79
2023/12/20 08:17:53;;;;;;;55.88;14.25;;;;;;;0.55;64.51;99560.06;7739075;32;38192;-79
2023/12/20 08:22:09;;;;;;;32.60;13.40;;;;;;;0.38;64.67;99575.00;7717381;32;38042;-79
2023/12/20 08:26:26;;;;;;;67.62;10.52;;;;;;;0.39;65.03;99570.44;7712383;32;40033;-80
2023/12/20 08:30:42;;;;;;;60.22;14.57;;;;;;;0.31;64.46;99558.91;7712210;32;39693;-79
2023/12/20 08:34:58;;;;;;;67.53;13.73;;;;;;;0.30;64.53;99589.44;7712015;32;38635;-79
2023/12/20 08:39:15;;;;;;;41.67;11.55;;;;;;;0.05;65.42;99591.94;7712243;32;37170;-78
2023/12/20 08:43:32;;;;;;;47.60;11.82;;;;;;;0.61;64.44;99585.22;7712327;32;39420;-85
2023/12/20 08:47:48;;;;;;;48.45;12.63;;;;;;;0.81;63.72;99593.22;7712166;32;39785;-84
2023/12/20 08:52:05;;;;;;;72.30;14.02;;;;;;;0.71;64.14;99585.59;7712108;32;38003;-85
2023/12/20 08:56:22;;;;;;;73.20;15.00;;;;;;;0.72;64.43;99597.16;7712190;32;37957;-83
2023/12/20 09:00:38;;;;;;;197.02;16.95;;;;;;;0.88;63.51;99590.47;7710838;32;39144;-82
2023/12/20 09:04:55;;;;;;;58.03;15.05;;;;;;;0.15;65.19;99596.87;7711743;32;39970;-83
2023/12/20 09:09:13;;;;;;;89.40;15.55;;;;;;;0.77;63.92;99591.97;7711857;32;38659;-84
2023/12/20 09:13:31;;;;;;;167.55;16.65;;;;;;;1.06;62.91;99587.91;7711877;32;37347;-88
2023/12/20 09:17:48;;;;;;;81.03;15.75;;;;;;;0.72;64.23;99581.87;7711901;32;39640;-86
2023/12/20 09:22:06;;;;;;;124.05;17.45;;;;;;;0.79;64.01;99581.03;7711880;32;40794;-86
2023/12/20 09:26:23;;;;;;;86.82;15.88;;;;;;;0.83;64.69;99568.81;7711116;32;37963;-86
2023/12/20 09:30:39;;;;;;;101.65;17.52;;;;;;;0.65;64.87;99578.38;7711689;32;37279;-86
2023/12/20 09:34:57;;;;;;;61.40;17.95;;;;;;;0.74;65.76;99570.91;7711554;32;39165;-86
2023/12/20 09:39:21;;;;;;;117.22;19.35;;;;;;;1.17;65.15;99554.19;7711483;32;39866;-85
2023/12/20 09:43:39;;;;;;;65.07;18.45;;;;;;;1.20;64.59;99536.81;7710378;32;38094;-85
2023/12/20 09:47:57;;;;;;;57.72;18.98;;;;;;;1.18;65.27;99533.53;7711675;32;36570;-87
2023/12/20 09:52:14;;;;;;;50.22;18.35;;;;;;;1.45;64.52;99529.63;7711234;32;40479;-85
2023/12/20 09:56:30;;;;;;;71.82;29.08;;;;;;;1.46;64.65;99533.94;7714168;32;40964;-83
2023/12/20 10:00:47;;;;;;;38.88;19.75;;;;;;;1.22;65.21;99524.00;7710994;32;37830;-82
2023/12/20 10:05:08;;;;;;;70.53;18.33;;;;;;;1.31;65.56;99503.88;7710956;32;37220;-83
2023/12/20 10:09:27;;;;;;;59.08;19.42;;;;;;;1.38;66.13;99503.84;7710411;32;39334;-82
2023/12/20 10:13:44;;;;;;;82.72;21.45;;;;;;;1.47;65.84;99500.69;7711042;32;39549;-83
2023/12/20 10:18:01;;;;;;;39.60;19.17;;;;;;;1.73;64.83;99512.25;7709871;32;38584;-81
2023/12/20 10:22:17;;;;;;;57.10;18.40;;;;;;;1.71;65.74;99479.38;7711020;32;37276;-83
2023/12/20 10:26:34;;;;;;;49.25;18.27;;;;;;;1.95;66.10;99461.56;7710989;32;39173;-81
2023/12/20 10:30:50;;;;;;;42.85;17.67;;;;;;;2.73;66.36;99445.72;7717128;32;39920;-83
2023/12/20 10:35:08;;;;;;;60.60;19.58;;;;;;;2.24;65.01;99443.88;7713670;32;37868;-84
2023/12/20 10:39:25;;;;;;;53.65;21.37;;;;;;;2.01;65.25;99433.78;7709437;32;37233;-83
2023/12/20 10:43:41;;;;;;;48.95;21.75;;;;;;;2.03;65.60;99422.78;7712616;32;39396;-83
2023/12/20 10:48:01;;;;;;;53.00;21.17;;;;;;;2.77;64.03;99452.28;7737086;32;39909;-84
2023/12/20 10:52:18;;;;;;;37.60;18.45;;;;;;;2.54;64.45;99426.09;7735898;32;38645;-84
2023/12/20 10:56:35;;;;;;;35.63;18.70;;;;;;;2.75;65.47;99404.03;7718554;32;37064;-84
2023/12/20 11:00:56;;;;;;;35.03;17.90;;;;;;;3.38;64.67;99405.31;7709004;32;40038;-82
2023/12/20 11:05:47;;;;;;;40.00;17.12;;;;;;;3.78;64.13;99402.94;7708819;32;40814;-82
2023/12/20 11:10:15;;;;;;;36.58;18.30;;;;;;;4.48;64.06;99381.19;7708769;32;38776;-82
2023/12/20 11:14:47;;;;;;;36.28;17.92;;;;;;;5.12;61.09;99377.38;7709832;32;37283;-82
2023/12/20 11:19:07;;;;;;;28.10;16.57;;;;;;;5.71;59.19;99365.25;7709864;32;40209;-82
2023/12/20 11:23:24;;;;;;;32.75;16.50;;;;;;;5.82;58.22;99358.94;7708479;32;40087;-80
2023/12/20 11:27:43;;;;;;;34.85;17.33;;;;;;;5.67;56.74;99358.72;7709337;32;37838;-80
2023/12/20 11:32:25;;;;;;;30.55;16.17;;;;;;;5.42;57.36;99368.13;7709377;32;38494;-80
2023/12/20 11:36:41;;;;;;;28.55;15.32;;;;;;;4.59;59.69;99382.19;7709293;32;42859;-79
2023/12/20 11:41:03;;;;;;;33.33;17.25;;;;;;;4.93;58.98;99381.38;7709246;32;39927;-70
2023/12/20 11:45:24;;;;;;;33.75;16.98;;;;;;;5.45;61.66;99368.44;7707985;32;38789;-81
2023/12/20 11:49:42;;;;;;;32.93;16.77;;;;;;;4.83;58.74;99377.47;7710680;32;37895;-81
2023/12/20 11:53:58;;;;;;;30.85;15.15;;;;;;;5.07;57.71;99369.19;7712756;32;39141;-81
2023/12/20 11:58:16;;;;;;;33.25;16.08;;;;;;;5.16;56.95;99370.44;7712665;32;39688;-80
2023/12/20 12:02:32;;;;;;;28.70;15.25;;;;;;;4.80;56.89;99369.03;7712442;32;37809;-80
2023/12/20 12:06:49;;;;;;;32.40;16.52;;;;;;;4.08;58.93;99365.81;7712662;32;37181;-83
2023/12/20 12:11:05;;;;;;;36.78;17.45;;;;;;;4.02;59.68;99356.00;7712240;32;40183;-82
2023/12/20 12:15:21;;;;;;;29.20;16.23;;;;;;;3.84;59.59;99362.38;7712343;32;39933;-82
2023/12/20 12:19:38;;;;;;;34.50;18.12;;;;;;;3.18;62.34;99372.50;7711379;32;37926;-83
2023/12/20 12:24:05;;;;;;;31.67;17.95;;;;;;;3.54;61.44;99370.63;7712461;32;37311;-82
2023/12/20 12:28:25;;;;;;;33.85;18.45;;;;;;;3.65;61.56;99372.47;7723838;32;39212;-82
2023/12/20 12:32:41;;;;;;;33.53;17.40;;;;;;;3.79;61.00;99367.66;7719425;32;40018;-82
2023/12/20 12:36:58;;;;;;;30.12;17.62;;;;;;;3.63;61.41;99377.28;7733446;32;37651;-84
2023/12/20 12:41:15;;;;;;;30.15;15.50;;;;;;;3.89;60.58;99373.25;7737627;32;37236;-84
2023/12/20 12:45:32;;;;;;;34.90;17.55;;;;;;;3.82;60.45;99375.28;7738885;32;39724;-83
2023/12/20 12:49:51;;;;;;;34.03;18.25;;;;;;;3.80;60.24;99371.19;7738934;32;39565;-81
2023/12/20 12:54:08;;;;;;;29.63;16.35;;;;;;;3.53;61.69;99374.38;7725466;32;38079;-83
2023/12/20 12:58:26;;;;;;;35.05;17.48;;;;;;;3.16;62.81;99372.75;7727838;32;37244;-85
2023/12/20 13:02:42;;;;;;;33.58;17.62;;;;;;;3.30;62.44;99370.63;7737579;32;39145;-82
2023/12/20 13:06:58;;;;;;;31.80;18.02;;;;;;;3.37;62.77;99371.34;7738688;32;40761;-81
2023/12/20 13:11:15;;;;;;;37.10;17.70;;;;;;;3.46;62.21;99368.28;7722049;32;278612;-84
2023/12/20 13:15:31;;;;;;;40.85;21.27;;;;;;;3.75;61.71;99356.53;7711725;32;37243;-82
2023/12/20 13:19:47;;;;;;;39.35;21.17;;;;;;;3.65;62.00;99355.50;7731865;32;39338;-79
2023/12/20 13:24:05;;;;;;;35.33;19.33;;;;;;;3.79;61.91;99350.66;7714472;32;41000;-80
2023/12/20 13:28:22;;;;;;;38.03;19.92;;;;;;;3.76;62.25;99358.19;7711614;32;39159;-81
2023/12/20 13:32:38;;;;;;;34.30;18.25;;;;;;;3.93;61.27;99368.22;7711646;32;37810;-82
2023/12/20 13:36:55;;;;;;;37.13;18.52;;;;;;;3.97;61.46;99363.16;7711741;32;39326;-80
2023/12/20 13:41:12;;;;;;;41.30;20.88;;;;;;;4.22;60.66;99357.44;7718832;32;40024;-79
2023/12/20 13:45:28;;;;;;;35.38;17.52;;;;;;;3.86;61.64;99362.13;7735293;32;38338;-79
2023/12/20 13:49:48;;;;;;;35.20;18.40;;;;;;;3.72;62.01;99357.00;7727326;32;37213;-80
2023/12/20 13:54:04;;;;;;;39.13;18.37;;;;;;;3.81;62.08;99364.72;7714942;32;39178;-80
2023/12/20 13:58:20;;;;;;;35.95;16.90;;;;;;;3.72;62.43;99375.87;7724370;32;40792;-80
2023/12/20 14:02:37;;;;;;;34.47;17.20;;;;;;;3.50;63.09;99386.47;7711051;32;37901;-80
2023/12/20 14:06:54;;;;;;;32.70;16.58;;;;;;;3.88;62.19;99386.97;7724781;32;37240;-80
2023/12/20 14:11:11;;;;;;;40.67;18.37;;;;;;;3.57;63.51;99380.94;7737419;32;39977;-79
2023/12/20 14:15:27;;;;;;;32.65;17.15;;;;;;;3.73;62.98;99377.53;7684310;32;40853;-80
2023/12/20 14:19:43;;;;;;;30.02;16.60;;;;;;;3.81;63.15;99376.34;7722105;32;38769;-81
2023/12/20 14:24:00;;;;;;;28.12;16.60;;;;;;;4.07;62.48;99366.91;7737464;32;37215;-81
2023/12/20 14:28:16;;;;;;;30.67;15.05;;;;;;;3.96;62.78;99362.34;7737739;32;39917;-82
2023/12/20 14:32:36;;;;;;;34.17;16.42;;;;;;;3.79;63.31;99367.66;7715295;32;39938;-81
2023/12/20 14:36:53;;;;;;;28.83;16.75;;;;;;;3.78;63.39;99370.59;7712277;32;38620;-81
2023/12/20 14:41:09;;;;;;;26.67;15.65;;;;;;;3.78;63.34;99382.22;7737435;32;37260;-81
2023/12/20 14:45:27;;;;;;;33.95;17.73;;;;;;;3.73;63.57;99380.22;7737367;32;40069;-78
2023/12/20 14:49:43;;;;;;;32.47;16.48;;;;;;;3.65;63.76;99383.25;7726511;32;40144;-79
2023/12/20 14:54:00;;;;;;;32.83;18.40;;;;;;;3.61;63.91;99382.09;7710248;32;38785;-80
2023/12/20 14:58:16;;;;;;;31.08;16.45;;;;;;;3.56;64.44;99379.31;7711242;32;37837;-79
2023/12/20 15:02:33;;;;;;;26.42;15.23;;;;;;;3.80;63.50;99396.28;7708283;32;39434;-81
2023/12/20 15:06:49;;;;;;;28.33;15.25;;;;;;;4.07;62.83;99411.91;7710042;32;40883;-81
2023/12/20 15:11:06;;;;;;;32.97;15.63;;;;;;;3.80;63.83;99398.16;7709930;32;38665;-81
2023/12/20 15:15:23;;;;;;;28.48;15.45;;;;;;;4.14;62.62;99401.84;7716551;32;37086;-81
2023/12/20 15:19:41;;;;;;;28.70;16.73;;;;;;;4.04;62.96;99402.44;7729645;32;40561;-81
2023/12/20 15:24:05;;;;;;;25.05;14.35;;;;;;;3.78;63.66;99419.13;7732759;32;40752;-80
2023/12/20 15:28:22;;;;;;;32.90;15.93;;;;;;;3.92;63.58;99428.63;7716040;32;38720;-81
2023/12/20 15:32:38;;;;;;;32.47;15.43;;;;;;;3.96;63.61;99427.06;7725778;32;37820;-80
2023/12/20 15:36:55;;;;;;;26.42;14.55;;;;;;;3.56;65.07;99427.81;7713867;32;39346;-78
2023/12/20 15:41:23;;;;;;;27.67;15.55;;;;;;;3.97;63.71;99423.34;7728221;32;40771;-79
2023/12/20 15:45:40;;;;;;;29.30;16.33;;;;;;;3.66;64.88;99438.03;7704757;32;38529;-80
2023/12/20 15:49:56;;;;;;;30.80;16.15;;;;;;;3.81;64.64;99429.44;7711619;32;37006;-80
2023/12/20 15:54:12;;;;;;;32.65;17.23;;;;;;;3.88;64.40;99432.81;7707346;32;39346;-78
2023/12/20 15:58:33;;;;;;;31.62;16.37;;;;;;;3.82;64.29;99431.91;7712734;32;40767;-80
2023/12/20 16:02:49;;;;;;;40.65;18.23;;;;;;;3.97;63.41;99436.81;7712490;32;38068;-80
2023/12/20 16:07:06;;;;;;;30.98;16.17;;;;;;;3.59;64.56;99432.75;7711036;32;37890;-80
2023/12/20 16:11:22;;;;;;;29.37;15.38;;;;;;;3.71;64.15;99430.06;7730196;32;39262;-83
2023/12/20 16:15:38;;;;;;;27.95;16.70;;;;;;;3.64;64.61;99434.72;7738015;32;39483;-82
2023/12/20 16:19:55;;;;;;;24.83;15.60;;;;;;;3.64;64.72;99429.31;7738503;32;37506;-79
2023/12/20 16:24:12;;;;;;;30.65;15.93;;;;;;;3.52;65.33;99437.44;7733919;32;37993;-76
2023/12/20 16:28:28;;;;;;;26.92;13.85;;;;;;;3.64;64.46;99430.16;7729956;32;39854;-76
2023/12/20 16:32:45;;;;;;;27.60;14.50;;;;;;;3.79;64.20;99420.78;7739056;32;40756;-76
2023/12/20 16:37:01;;;;;;;26.65;14.80;;;;;;;3.83;64.13;99425.47;7738754;32;38781;-76
2023/12/20 16:41:18;;;;;;;27.87;14.93;;;;;;;3.55;64.83;99429.69;7733370;32;38035;-76
2023/12/20 16:45:34;;;;;;;29.37;14.98;;;;;;;3.60;64.13;99425.47;7723766;32;39985;-76
2023/12/20 16:49:50;;;;;;;25.20;13.65;;;;;;;3.63;63.58;99428.50;7739137;32;40833;-76
2023/12/20 16:54:07;;;;;;;24.95;13.90;;;;;;;3.58;64.68;99431.09;7725203;32;37992;-77
2023/12/20 16:58:23;;;;;;;27.08;15.23;;;;;;;3.53;64.85;99441.75;7711725;32;37204;-76
2023/12/20 17:02:40;;;;;;;28.83;14.75;;;;;;;3.62;64.35;99437.66;7723346;32;40004;-76
2023/12/20 17:06:56;;;;;;;33.65;16.25;;;;;;;3.62;64.38;99439.53;7711757;32;40625;-76
2023/12/20 17:11:12;;;;;;;29.42;16.80;;;;;;;3.66;63.81;99438.03;7711774;32;37188;-76
2023/12/20 17:15:28;;;;;;;29.20;15.32;;;;;;;3.67;63.57;99442.34;7711684;32;37962;-77
2023/12/20 17:19:45;;;;;;;26.05;14.43;;;;;;;3.94;62.31;99427.31;7711830;32;40073;-77
2023/12/20 17:24:02;;;;;;;25.92;12.70;;;;;;;3.84;62.14;99429.78;7731948;32;39974;-78
2023/12/20 17:28:19;;;;;;;25.20;14.10;;;;;;;3.57;64.42;99442.94;7738461;32;38673;-78
2023/12/20 17:32:37;;;;;;;24.48;14.40;;;;;;;3.72;65.37;99427.09;7738460;32;37486;-78
2023/12/20 17:36:53;;;;;;;33.85;16.62;;;;;;;3.51;66.00;99450.06;7729912;32;41571;-77
2023/12/20 17:41:10;;;;;;;33.90;18.90;;;;;;;3.58;65.01;99453.47;7712014;32;38455;-78
2023/12/20 17:45:27;;;;;;;36.38;19.60;;;;;;;3.46;64.83;99454.53;7711160;32;37938;-78
2023/12/20 17:49:43;;;;;;;37.95;20.98;;;;;;;3.50;64.19;99463.78;7710932;32;37932;-78
2023/12/20 17:54:02;;;;;;;39.40;19.37;;;;;;;3.30;64.90;99464.94;7727159;32;39158;-78
2023/12/20 17:58:18;;;;;;;29.37;17.20;;;;;;;3.21;65.44;99466.34;7722260;32;41249;-76
2023/12/20 18:02:36;;;;;;;31.60;16.58;;;;;;;2.75;67.41;99479.41;7731842;32;39010;-76
2023/12/20 18:06:54;;;;;;;33.20;16.90;;;;;;;3.02;66.57;99473.69;7710191;32;37937;-77
2023/12/20 18:11:11;;;;;;;30.98;17.30;;;;;;;3.09;66.27;99473.56;7721184;32;39518;-77
2023/12/20 18:15:27;;;;;;;31.08;17.23;;;;;;;3.12;66.43;99486.56;7715645;32;40845;-76
2023/12/20 18:19:44;;;;;;;26.98;15.85;;;;;;;2.97;66.50;99497.78;7709223;32;39151;-76
2023/12/20 18:24:02;;;;;;;32.22;17.45;;;;;;;2.91;66.46;99499.50;7710623;32;37104;-77
2023/12/20 18:28:26;;;;;;;27.90;16.75;;;;;;;3.27;65.05;99499.59;7709740;32;39395;-77
2023/12/20 18:32:42;;;;;;;29.77;17.23;;;;;;;3.35;64.94;99491.19;7710284;32;40700;-77
2023/12/20 18:36:59;;;;;;;32.47;16.85;;;;;;;3.48;64.87;99485.56;7709874;32;38768;-76
2023/12/20 18:41:15;;;;;;;34.58;17.80;;;;;;;3.50;64.65;99485.34;7709517;32;37722;-77
2023/12/20 18:45:32;;;;;;;24.00;15.90;;;;;;;3.38;65.30;99490.72;7710365;32;39310;-77
2023/12/20 18:49:49;;;;;;;31.27;15.43;;;;;;;3.53;64.59;99506.44;7708713;32;40755;-77
2023/12/20 18:54:05;;;;;;;24.95;13.93;;;;;;;3.64;63.89;99504.81;7709819;32;37893;-77
2023/12/20 18:58:23;;;;;;;20.67;12.60;;;;;;;3.66;63.48;99508.13;7707829;32;37154;-75
2023/12/20 19:02:40;;;;;;;23.75;13.13;;;;;;;3.50;66.01;99504.22;7708962;32;41449;-77
2023/12/20 19:07:00;;;;;;;24.12;12.82;;;;;;;3.75;65.68;99507.53;7708196;32;39768;-77
2023/12/20 19:11:17;;;;;;;20.35;11.77;;;;;;;3.72;65.79;99516.06;7708960;32;37661;-77
2023/12/20 19:15:34;;;;;;;23.52;12.27;;;;;;;3.94;65.17;99519.00;7709298;32;37138;-77
2023/12/20 19:19:50;;;;;;;21.98;11.93;;;;;;;3.87;66.24;99533.69;7708302;32;39085;-78
2023/12/20 19:24:07;;;;;;;21.85;11.15;;;;;;;3.94;65.36;99543.28;7709185;32;39452;-77
2023/12/20 19:28:23;;;;;;;23.42;13.40;;;;;;;3.81;65.75;99531.91;7709092;32;37958;-77
2023/12/20 19:32:39;;;;;;;24.77;12.65;;;;;;;4.21;64.52;99525.78;7708115;32;37188;-77
2023/12/20 19:36:55;;;;;;;24.58;13.35;;;;;;;4.22;64.51;99516.66;7708630;32;39458;-77
2023/12/20 19:41:12;;;;;;;21.87;12.52;;;;;;;4.35;63.80;99526.38;7715230;32;39797;-78
2023/12/20 19:45:29;;;;;;;22.17;11.60;;;;;;;4.11;64.12;99524.53;7730605;32;37694;-77
2023/12/20 19:49:46;;;;;;;23.73;12.80;;;;;;;4.06;64.00;99521.72;7707974;32;37168;-77
2023/12/20 19:54:02;;;;;;;23.60;13.62;;;;;;;4.25;63.57;99524.28;7707948;32;39237;-81